Time;durP1;ratioP1;P1;durP2;ratioP2;P2;SDS_P1;SDS_P2;PMS_P1;PMS_P2;Temp;Humidity;BMP_temperature;BMP_pressure;BME280_temperature;BME280_humidity;BME280_pressure;Samples;Min_cycle;Max_cycle;Signal;HPM_P1;HPM_P2
2021/12/08 00:00:46;;;;;;;3.78;0.90;;;;;;;;;;5010031;28;20034;-79
2021/12/08 00:03:16;;;;;;;2.58;0.70;;;;;;;;;;5011621;28;20098;-77
2021/12/08 00:05:43;;;;;;;;;;;;;;;;;;5011305;28;20120;-78
2021/12/08 00:08:13;;;;;;;1.55;0.70;;;;;;;;;;5009729;28;19956;-77
2021/12/08 00:13:00;;;;;;;0.80;0.75;;;;;;;;;;5010341;28;20033;-76
2021/12/08 00:13:31;;;;;;;2.55;0.80;;;;;;;;;;5010712;28;20040;-77
2021/12/08 00:15:59;;;;;;;1.23;0.70;;;;;;;;;;5012568;28;20108;-77
2021/12/08 00:18:27;;;;;;;3.72;0.90;;;;;;;;;;5006389;28;20497;-77
2021/12/08 00:20:56;;;;;;;1.67;1.10;;;;;;;;;;5009673;28;20296;-77
2021/12/08 00:23:22;;;;;;;1.85;0.93;;;;;;;;;;5010227;28;20149;-77
2021/12/08 00:25:49;;;;;;;2.88;1.13;;;;;;;;;;5014214;28;20057;-78
2021/12/08 00:28:15;;;;;;;2.80;1.33;;;;;;;;;;5012392;28;20036;-77
2021/12/08 00:30:44;;;;;;;2.13;0.90;;;;;;;;;;5009957;28;20542;-78
2021/12/08 00:33:10;;;;;;;3.20;1.10;;;;;;;;;;5009329;28;20034;-78
2021/12/08 00:35:36;;;;;;;1.95;1.08;;;;;;;;;;5014200;28;20148;-77
2021/12/08 00:38:04;;;;;;;3.30;1.20;;;;;;;;;;5016604;28;20048;-76
2021/12/08 00:40:30;;;;;;;2.53;1.42;;;;;;;;;;5012434;28;20038;-77
2021/12/08 00:42:59;;;;;;;1.95;1.08;;;;;;;;;;5012492;28;20096;-77
2021/12/08 00:45:26;;;;;;;1.83;0.90;;;;;;;;;;5012657;28;20071;-77
2021/12/08 00:47:53;;;;;;;2.75;1.13;;;;;;;;;;5013260;28;20029;-77
2021/12/08 00:50:23;;;;;;;1.23;0.88;;;;;;;;;;5016193;28;20021;-78
2021/12/08 00:52:51;;;;;;;7.63;2.00;;;;;;;;;;5018578;28;20029;-77
2021/12/08 00:55:18;;;;;;;13.45;2.80;;;;;;;;;;5014371;28;20034;-77
2021/12/08 00:57:44;;;;;;;12.23;3.20;;;;;;;;;;5020590;28;20029;-78
2021/12/08 01:00:18;;;;;;;9.25;2.53;;;;;;;;;;5020675;28;20539;-78
2021/12/08 01:02:45;;;;;;;22.95;6.10;;;;;;;;;;5016466;28;20021;-78
2021/12/08 01:05:14;;;;;;;12.85;4.07;;;;;;;;;;5020777;28;20033;-78
2021/12/08 01:07:39;;;;;;;4.00;1.80;;;;;;;;;;5013397;28;20042;-78
2021/12/08 01:10:07;;;;;;;6.18;1.63;;;;;;;;;;5026683;28;20077;-77
2021/12/08 01:12:33;;;;;;;3.63;0.98;;;;;;;;;;5014077;28;20038;-78
2021/12/08 01:15:01;;;;;;;1.83;0.75;;;;;;;;;;5015276;28;20131;-79
2021/12/08 01:17:26;;;;;;;2.35;0.93;;;;;;;;;;5013091;28;20112;-80
2021/12/08 01:19:52;;;;;;;1.40;0.80;;;;;;;;;;5013497;28;20493;-79
2021/12/08 01:22:18;;;;;;;1.60;0.95;;;;;;;;;;5008627;28;20034;-80
2021/12/08 01:24:44;;;;;;;2.92;1.05;;;;;;;;;;5014224;28;20112;-79
2021/12/08 01:27:10;;;;;;;1.75;1.20;;;;;;;;;;5015990;28;20018;-77
2021/12/08 01:29:36;;;;;;;3.20;1.17;;;;;;;;;;5012048;28;20113;-77
2021/12/08 01:32:01;;;;;;;1.00;0.90;;;;;;;;;;5012048;28;20376;-79
2021/12/08 01:34:29;;;;;;;2.65;1.20;;;;;;;;;;5014373;28;20021;-78
2021/12/08 01:36:55;;;;;;;2.42;1.10;;;;;;;;;;5011111;28;20025;-77
2021/12/08 01:39:20;;;;;;;3.35;1.27;;;;;;;;;;5014194;28;20180;-79
2021/12/08 01:41:47;;;;;;;1.85;1.10;;;;;;;;;;5012179;28;20156;-76
2021/12/08 01:46:57;;;;;;;6.45;1.50;;;;;;;;;;5012461;28;20037;-80
2021/12/08 01:49:25;;;;;;;2.22;1.00;;;;;;;;;;5012490;28;20022;-79
2021/12/08 01:51:50;;;;;;;4.50;1.67;;;;;;;;;;5013824;28;20496;-78
2021/12/08 01:54:19;;;;;;;3.00;1.20;;;;;;;;;;5015363;28;20060;-78
2021/12/08 01:56:45;;;;;;;2.47;1.33;;;;;;;;;;5012562;28;20362;-77
2021/12/08 01:59:11;;;;;;;3.40;1.30;;;;;;;;;;5012738;28;20289;-78
2021/12/08 02:01:41;;;;;;;4.00;1.40;;;;;;;;;;5016045;28;20447;-80
2021/12/08 02:04:06;;;;;;;3.10;1.20;;;;;;;;;;5014424;28;20037;-77
2021/12/08 02:06:36;;;;;;;2.28;1.10;;;;;;;;;;5013481;28;20480;-78
2021/12/08 02:09:09;;;;;;;3.47;1.20;;;;;;;;;;5012912;28;20061;-77
2021/12/08 02:11:36;;;;;;;2.70;1.55;;;;;;;;;;5010547;28;20034;-77
2021/12/08 02:14:02;;;;;;;3.55;1.65;;;;;;;;;;5009785;28;20084;-78
2021/12/08 02:16:29;;;;;;;4.13;1.42;;;;;;;;;;5013080;28;20034;-78
2021/12/08 02:18:55;;;;;;;2.53;1.30;;;;;;;;;;5011326;28;20022;-78
2021/12/08 02:21:24;;;;;;;3.97;2.20;;;;;;;;;;5010626;28;20033;-77
2021/12/08 02:23:50;;;;;;;2.47;1.30;;;;;;;;;;5011860;28;20509;-77
2021/12/08 02:26:15;;;;;;;4.93;1.52;;;;;;;;;;5011840;28;20124;-79
2021/12/08 02:28:42;;;;;;;2.55;1.52;;;;;;;;;;5010846;28;20034;-75
2021/12/08 02:31:12;;;;;;;3.42;1.83;;;;;;;;;;5008406;28;20034;-75
2021/12/08 02:50:19;;;;;;;3.92;1.75;;;;;;;;;;4984698;28;20045;-78
2021/12/08 02:52:45;;;;;;;3.80;1.70;;;;;;;;;;5006107;28;20030;-77
2021/12/08 02:55:10;;;;;;;3.67;1.55;;;;;;;;;;5013655;28;20044;-78
2021/12/08 02:57:38;;;;;;;2.88;1.92;;;;;;;;;;5010101;28;20129;-78
2021/12/08 03:00:07;;;;;;;3.45;1.50;;;;;;;;;;5014578;28;20042;-77
2021/12/08 03:02:33;;;;;;;5.93;2.67;;;;;;;;;;5011586;28;20034;-78
2021/12/08 03:04:58;;;;;;;2.78;2.33;;;;;;;;;;5014362;28;20456;-79
2021/12/08 03:07:24;;;;;;;3.65;2.00;;;;;;;;;;5012646;28;20093;-80
2021/12/08 03:09:49;;;;;;;4.95;4.15;;;;;;;;;;5012285;28;20090;-76
2021/12/08 03:12:15;;;;;;;2.47;1.92;;;;;;;;;;5014034;28;20030;-77
2021/12/08 03:14:40;;;;;;;3.15;2.03;;;;;;;;;;5012699;28;20401;-78
2021/12/08 03:17:09;;;;;;;4.55;2.20;;;;;;;;;;5017638;28;20025;-76
2021/12/08 03:19:37;;;;;;;5.57;3.73;;;;;;;;;;5013544;28;20079;-78
2021/12/08 03:22:10;;;;;;;7.03;1.88;;;;;;;;;;5017141;28;20026;-79
2021/12/08 03:24:40;;;;;;;2.35;2.15;;;;;;;;;;5014773;28;20030;-77
2021/12/08 03:27:12;;;;;;;2.88;2.00;;;;;;;;;;5010448;28;20022;-77
2021/12/08 03:32:17;;;;;;;2.22;2.03;;;;;;;;;;5013196;28;20094;-80
2021/12/08 03:34:52;;;;;;;2.40;2.08;;;;;;;;;;5014531;28;20100;-79
2021/12/08 03:37:29;;;;;;;3.28;2.13;;;;;;;;;;5012545;28;20037;-78
2021/12/08 03:39:57;;;;;;;2.33;1.85;;;;;;;;;;5011704;28;20022;-79
2021/12/08 03:42:26;;;;;;;3.58;2.50;;;;;;;;;;5012305;28;20032;-78
2021/12/08 03:45:00;;;;;;;4.00;2.40;;;;;;;;;;5014787;28;20053;-79
2021/12/08 03:47:28;;;;;;;3.25;2.15;;;;;;;;;;5016665;28;20033;-79
2021/12/08 03:49:58;;;;;;;5.93;2.22;;;;;;;;;;5012479;28;20026;-81
2021/12/08 03:52:24;;;;;;;4.68;1.50;;;;;;;;;;5015201;28;20087;-78
2021/12/08 03:54:51;;;;;;;3.92;1.60;;;;;;;;;;5014319;28;20033;-78
2021/12/08 03:57:17;;;;;;;2.95;1.77;;;;;;;;;;5014606;28;20048;-79
2021/12/08 03:59:43;;;;;;;3.17;1.60;;;;;;;;;;5015586;28;20481;-78
2021/12/08 04:02:09;;;;;;;3.58;1.98;;;;;;;;;;5014212;28;20037;-80
2021/12/08 04:04:43;;;;;;;4.53;1.73;;;;;;;;;;5014231;28;20034;-81
2021/12/08 04:07:11;;;;;;;3.38;2.03;;;;;;;;;;5013585;28;20113;-77
2021/12/08 04:09:42;;;;;;;3.63;1.80;;;;;;;;;;5014622;28;20029;-78
2021/12/08 04:12:11;;;;;;;5.47;1.60;;;;;;;;;;5013852;28;20048;-80
2021/12/08 04:14:46;;;;;;;3.40;1.60;;;;;;;;;;5015555;28;20030;-78
2021/12/08 04:17:34;;;;;;;3.25;1.88;;;;;;;;;;5015637;28;20030;-78
2021/12/08 04:20:05;;;;;;;3.45;2.05;;;;;;;;;;5018126;28;20381;-79
2021/12/08 04:22:34;;;;;;;4.05;1.70;;;;;;;;;;5016411;28;20141;-78
2021/12/08 04:25:07;;;;;;;3.83;1.75;;;;;;;;;;5014349;28;20060;-80
2021/12/08 04:27:36;;;;;;;3.65;1.67;;;;;;;;;;5013963;28;20048;-79
2021/12/08 04:30:05;;;;;;;3.60;1.50;;;;;;;;;;5014968;28;20034;-80
2021/12/08 04:32:32;;;;;;;2.23;1.70;;;;;;;;;;5015463;28;20034;-80
2021/12/08 04:35:00;;;;;;;3.05;1.50;;;;;;;;;;5014834;28;20070;-80
2021/12/08 04:37:31;;;;;;;3.20;1.70;;;;;;;;;;5015618;28;20038;-81
2021/12/08 04:45:17;;;;;;;4.03;1.52;;;;;;;;;;5016364;28;20041;-79
2021/12/08 04:48:08;;;;;;;4.82;2.20;;;;;;;;;;5016775;28;20060;-77
2021/12/08 04:51:05;;;;;;;3.05;1.75;;;;;;;;;;5013248;28;20279;-79
2021/12/08 05:04:42;;;;;;;1.73;1.35;;;;;;;;;;5015659;28;20022;-79
2021/12/08 05:07:31;;;;;;;2.22;1.63;;;;;;;;;;5018924;28;20030;-79
2021/12/08 05:10:00;;;;;;;4.20;1.35;;;;;;;;;;5015593;28;20477;-81
2021/12/08 05:12:31;;;;;;;2.63;1.63;;;;;;;;;;5013458;28;20113;-81
2021/12/08 05:15:12;;;;;;;2.78;1.75;;;;;;;;;;5018914;28;20065;-77
2021/12/08 05:17:51;;;;;;;3.58;1.70;;;;;;;;;;5014128;28;20101;-80
2021/12/08 05:20:26;;;;;;;3.13;1.80;;;;;;;;;;5013475;28;20022;-78
2021/12/08 05:22:56;;;;;;;9.90;3.47;;;;;;;;;;5013044;28;20044;-80
2021/12/08 05:25:27;;;;;;;5.18;2.50;;;;;;;;;;5019291;28;20037;-80
2021/12/08 05:27:57;;;;;;;2.60;1.60;;;;;;;;;;5013286;28;20033;-78
2021/12/08 05:30:25;;;;;;;;;;;;;;;;;;5016643;28;20076;-77
2021/12/08 05:32:52;;;;;;;2.67;1.40;;;;;;;;;;5014896;28;19925;-77
2021/12/08 05:35:20;;;;;;;2.28;1.40;;;;;;;;;;5015316;28;20097;-78
2021/12/08 05:37:46;;;;;;;2.65;1.70;;;;;;;;;;5016264;28;20025;-79
2021/12/08 05:40:18;;;;;;;3.03;1.98;;;;;;;;;;5013470;28;20069;-80
2021/12/08 05:42:45;;;;;;;3.75;2.20;;;;;;;;;;5013818;28;20051;-80
2021/12/08 05:45:15;;;;;;;5.40;2.00;;;;;;;;;;5012927;28;20045;-79
2021/12/08 05:47:42;;;;;;;3.83;1.95;;;;;;;;;;5015418;28;20450;-79
2021/12/08 05:50:10;;;;;;;7.72;4.05;;;;;;;;;;5030711;28;20034;-77
2021/12/08 05:52:38;;;;;;;12.52;4.68;;;;;;;;;;5014313;28;20034;-76
2021/12/08 05:55:06;;;;;;;7.00;3.15;;;;;;;;;;5013056;28;20026;-78
2021/12/08 05:57:39;;;;;;;5.05;2.88;;;;;;;;;;5010068;28;20096;-77
2021/12/08 06:00:29;;;;;;;5.45;2.90;;;;;;;;;;5014874;28;20029;-77
2021/12/08 06:02:55;;;;;;;6.95;3.30;;;;;;;;;;5014351;28;20021;-77
2021/12/08 06:05:22;;;;;;;3.38;2.22;;;;;;;;;;5012584;28;20026;-78
2021/12/08 06:07:48;;;;;;;5.10;2.40;;;;;;;;;;5011151;28;20034;-78
2021/12/08 06:10:22;;;;;;;7.07;3.22;;;;;;;;;;5012667;28;20370;-79
2021/12/08 06:12:49;;;;;;;7.10;3.33;;;;;;;;;;5012176;28;20121;-79
2021/12/08 06:15:16;;;;;;;4.78;2.67;;;;;;;;;;5014163;28;20485;-78
2021/12/08 06:17:41;;;;;;;5.10;2.67;;;;;;;;;;5013654;28;20392;-78
2021/12/08 06:20:11;;;;;;;3.67;2.20;;;;;;;;;;5011836;28;20032;-78
2021/12/08 06:22:37;;;;;;;4.45;2.22;;;;;;;;;;5012442;28;20065;-78
2021/12/08 06:25:03;;;;;;;3.35;2.03;;;;;;;;;;5014282;28;20068;-78
2021/12/08 06:27:29;;;;;;;4.45;2.58;;;;;;;;;;5016546;28;20072;-77
2021/12/08 06:29:55;;;;;;;6.68;3.05;;;;;;;;;;5010424;28;20460;-78
2021/12/08 06:32:25;;;;;;;8.02;3.45;;;;;;;;;;5012581;28;20032;-79
2021/12/08 06:34:58;;;;;;;8.07;3.50;;;;;;;;;;5007047;28;21089;-77
2021/12/08 06:37:36;;;;;;;5.22;2.83;;;;;;;;;;5011179;28;20121;-77
2021/12/08 06:40:44;;;;;;;9.80;2.92;;;;;;;;;;5012506;28;20095;-78
2021/12/08 06:43:14;;;;;;;10.05;4.90;;;;;;;;;;5007703;28;20029;-77
2021/12/08 06:45:44;;;;;;;6.40;3.75;;;;;;;;;;5011286;28;20125;-77
2021/12/08 06:48:17;;;;;;;4.28;2.55;;;;;;;;;;5014881;28;20057;-79
2021/12/08 06:50:51;;;;;;;3.63;1.98;;;;;;;;;;5015636;28;20038;-77
2021/12/08 06:53:17;;;;;;;4.30;2.40;;;;;;;;;;5012656;28;20057;-80
2021/12/08 06:55:55;;;;;;;6.07;2.88;;;;;;;;;;5012984;28;20514;-79
2021/12/08 06:58:24;;;;;;;4.72;2.90;;;;;;;;;;5013383;28;20034;-78
2021/12/08 07:00:57;;;;;;;3.67;2.38;;;;;;;;;;5009488;28;20040;-80
2021/12/08 07:03:34;;;;;;;4.55;2.70;;;;;;;;;;5010545;28;20489;-79
2021/12/08 07:06:11;;;;;;;3.72;2.30;;;;;;;;;;5004941;28;20143;-81
2021/12/08 07:08:49;;;;;;;6.75;3.58;;;;;;;;;;5011761;28;20037;-79
2021/12/08 07:11:20;;;;;;;2.80;1.90;;;;;;;;;;5009289;28;20044;-80
2021/12/08 07:13:47;;;;;;;4.28;2.90;;;;;;;;;;5010161;28;20037;-78
2021/12/08 07:16:18;;;;;;;5.20;2.55;;;;;;;;;;5008767;28;20057;-79
2021/12/08 07:18:54;;;;;;;5.43;2.75;;;;;;;;;;5012307;28;20025;-79
2021/12/08 07:21:23;;;;;;;4.95;3.35;;;;;;;;;;5013189;28;20026;-78
2021/12/08 07:23:58;;;;;;;5.17;3.73;;;;;;;;;;5015819;28;20049;-78
2021/12/08 07:26:29;;;;;;;4.72;3.05;;;;;;;;;;5014139;28;20273;-79
2021/12/08 07:28:56;;;;;;;4.15;2.95;;;;;;;;;;5017343;28;20696;-79
2021/12/08 07:31:33;;;;;;;4.32;3.13;;;;;;;;;;5015422;28;20045;-79
2021/12/08 07:34:04;;;;;;;3.70;2.65;;;;;;;;;;5008532;28;20065;-79
2021/12/08 07:36:34;;;;;;;3.70;2.58;;;;;;;;;;5018657;28;20034;-79
2021/12/08 07:39:00;;;;;;;4.68;2.65;;;;;;;;;;5016424;28;20037;-80
2021/12/08 07:41:31;;;;;;;4.07;2.30;;;;;;;;;;5018578;28;20045;-80
2021/12/08 07:44:00;;;;;;;4.50;2.55;;;;;;;;;;5014671;28;20048;-81
2021/12/08 07:46:31;;;;;;;6.50;3.70;;;;;;;;;;5018756;28;20056;-80
2021/12/08 07:49:03;;;;;;;6.63;2.55;;;;;;;;;;5013319;28;20068;-77
2021/12/08 07:51:39;;;;;;;3.38;1.95;;;;;;;;;;5018593;28;20044;-80
2021/12/08 07:54:08;;;;;;;3.75;2.15;;;;;;;;;;5017878;28;20038;-78
2021/12/08 07:56:37;;;;;;;3.87;2.37;;;;;;;;;;5007970;28;20037;-78
2021/12/08 07:59:06;;;;;;;5.88;3.00;;;;;;;;;;5012699;28;20030;-79
2021/12/08 08:01:35;;;;;;;4.63;2.57;;;;;;;;;;5008918;28;20044;-77
2021/12/08 08:04:06;;;;;;;3.95;2.33;;;;;;;;;;5012557;28;20028;-77
2021/12/08 08:06:40;;;;;;;4.70;2.17;;;;;;;;;;5011926;28;20042;-78
2021/12/08 08:09:10;;;;;;;3.38;2.13;;;;;;;;;;5009802;28;20129;-76
2021/12/08 08:11:41;;;;;;;3.80;2.08;;;;;;;;;;5011321;28;20332;-77
2021/12/08 08:14:10;;;;;;;4.65;2.13;;;;;;;;;;5008461;28;20032;-78
2021/12/08 08:16:37;;;;;;;3.65;2.78;;;;;;;;;;5009552;28;20034;-77
2021/12/08 08:19:10;;;;;;;4.45;2.67;;;;;;;;;;5010911;28;20486;-79
2021/12/08 08:21:43;;;;;;;4.75;2.47;;;;;;;;;;5011201;28;20026;-78
2021/12/08 08:24:09;;;;;;;4.20;2.53;;;;;;;;;;5011392;28;20017;-78
2021/12/08 08:26:38;;;;;;;5.10;2.80;;;;;;;;;;5010287;28;20580;-78
2021/12/08 08:29:05;;;;;;;2.80;1.80;;;;;;;;;;5011476;28;20025;-78
2021/12/08 08:31:34;;;;;;;2.85;1.90;;;;;;;;;;5006746;28;20026;-78
2021/12/08 08:34:00;;;;;;;2.85;1.67;;;;;;;;;;5006847;28;20498;-77
2021/12/08 08:36:36;;;;;;;4.47;2.22;;;;;;;;;;5006220;28;20041;-77
2021/12/08 08:39:16;;;;;;;2.40;1.85;;;;;;;;;;5003326;28;20026;-77
2021/12/08 08:41:46;;;;;;;2.88;2.00;;;;;;;;;;5007792;28;20080;-77
2021/12/08 08:44:38;;;;;;;1.98;1.73;;;;;;;;;;5009537;28;20068;-77
2021/12/08 08:47:10;;;;;;;2.47;1.90;;;;;;;;;;5005976;28;20156;-77
2021/12/08 08:49:38;;;;;;;2.47;1.88;;;;;;;;;;5008955;28;20033;-77
2021/12/08 08:52:32;;;;;;;2.25;1.38;;;;;;;;;;5006040;28;20026;-77
2021/12/08 08:55:04;;;;;;;2.85;1.48;;;;;;;;;;5008302;28;20129;-79
2021/12/08 08:57:34;;;;;;;2.25;1.27;;;;;;;;;;5013242;28;20017;-77
2021/12/08 09:00:30;;;;;;;2.92;1.80;;;;;;;;;;5027673;28;20113;-77
2021/12/08 09:03:02;;;;;;;3.20;1.27;;;;;;;;;;5013527;28;20018;-77
2021/12/08 09:05:43;;;;;;;2.13;1.35;;;;;;;;;;5013548;28;20030;-77
2021/12/08 09:08:14;;;;;;;3.03;2.45;;;;;;;;;;5012251;28;20087;-77
2021/12/08 09:10:47;;;;;;;2.08;1.85;;;;;;;;;;5015229;28;20056;-76
2021/12/08 09:13:20;;;;;;;2.40;2.00;;;;;;;;;;5013520;28;20025;-77
2021/12/08 09:15:54;;;;;;;2.78;1.90;;;;;;;;;;5014010;28;20045;-79
2021/12/08 09:18:29;;;;;;;2.38;1.50;;;;;;;;;;5010483;28;20335;-77
2021/12/08 09:21:15;;;;;;;2.35;1.30;;;;;;;;;;5011032;28;20049;-79
2021/12/08 09:24:06;;;;;;;2.00;1.63;;;;;;;;;;5013790;28;20022;-77
2021/12/08 09:26:36;;;;;;;1.65;1.52;;;;;;;;;;5011449;28;20440;-77
2021/12/08 09:29:18;;;;;;;2.22;1.50;;;;;;;;;;5012541;28;20026;-78
2021/12/08 09:31:57;;;;;;;2.63;1.50;;;;;;;;;;5010665;28;20029;-78
2021/12/08 09:34:27;;;;;;;2.97;1.90;;;;;;;;;;5008494;28;20034;-77
2021/12/08 09:37:00;;;;;;;2.97;1.75;;;;;;;;;;5012935;28;20038;-77
2021/12/08 09:39:45;;;;;;;3.00;2.50;;;;;;;;;;5012391;28;20112;-79
2021/12/08 09:42:17;;;;;;;2.78;2.22;;;;;;;;;;5016261;28;20061;-78
2021/12/08 09:44:56;;;;;;;2.92;2.33;;;;;;;;;;5021636;28;20057;-79
2021/12/08 09:47:28;;;;;;;3.65;1.90;;;;;;;;;;5018340;28;20092;-79
2021/12/08 09:49:57;;;;;;;1.88;1.42;;;;;;;;;;5019043;28;20030;-78
2021/12/08 09:52:27;;;;;;;4.17;3.10;;;;;;;;;;5016449;28;20208;-78
2021/12/08 09:54:57;;;;;;;2.85;2.20;;;;;;;;;;5014636;28;20034;-78
2021/12/08 09:57:24;;;;;;;3.50;2.40;;;;;;;;;;5013034;28;20124;-79
2021/12/08 09:59:49;;;;;;;5.40;2.92;;;;;;;;;;5014181;28;20030;-78
2021/12/08 10:02:24;;;;;;;7.10;5.07;;;;;;;;;;5011215;28;20041;-76
2021/12/08 10:04:50;;;;;;;6.05;4.10;;;;;;;;;;5011955;28;20030;-78
2021/12/08 10:07:19;;;;;;;4.13;2.20;;;;;;;;;;5011253;28;21064;-77
2021/12/08 10:09:45;;;;;;;24.38;11.82;;;;;;;;;;5013844;28;20037;-78
2021/12/08 10:12:12;;;;;;;64.45;23.77;;;;;;;;;;5014427;28;20037;-78
2021/12/08 10:14:38;;;;;;;37.70;15.68;;;;;;;;;;5012580;28;20045;-78
2021/12/08 10:17:03;;;;;;;13.38;6.60;;;;;;;;;;5015241;28;20453;-77
2021/12/08 10:19:29;;;;;;;6.88;3.70;;;;;;;;;;5014764;28;20030;-78
2021/12/08 10:21:55;;;;;;;4.15;2.75;;;;;;;;;;5013992;28;20089;-78
2021/12/08 10:24:27;;;;;;;3.10;2.65;;;;;;;;;;5015269;28;20026;-78
2021/12/08 10:27:02;;;;;;;3.83;2.60;;;;;;;;;;5008607;28;20076;-79
2021/12/08 10:29:29;;;;;;;12.43;7.10;;;;;;;;;;5033851;28;20025;-78
2021/12/08 10:31:57;;;;;;;9.45;5.80;;;;;;;;;;5008958;28;20109;-77
2021/12/08 10:34:30;;;;;;;6.05;4.85;;;;;;;;;;5007547;28;20040;-78
2021/12/08 10:37:08;;;;;;;5.63;4.32;;;;;;;;;;5006974;28;20025;-79
2021/12/08 10:39:46;;;;;;;4.90;4.03;;;;;;;;;;5012561;28;20122;-78
2021/12/08 10:42:23;;;;;;;4.72;3.25;;;;;;;;;;5007980;28;20042;-79
2021/12/08 10:45:01;;;;;;;3.97;2.80;;;;;;;;;;5009933;28;20014;-79
2021/12/08 10:47:31;;;;;;;4.20;2.78;;;;;;;;;;5009788;28;20034;-79
2021/12/08 10:55:22;;;;;;;9.57;3.60;;;;;;;;;;5014831;28;20041;-79
2021/12/08 10:57:53;;;;;;;6.90;3.78;;;;;;;;;;5015563;28;20411;-80
2021/12/08 11:00:37;;;;;;;8.15;4.45;;;;;;;;;;5014736;28;20037;-78
2021/12/08 11:03:08;;;;;;;14.05;6.03;;;;;;;;;;5015593;28;20045;-79
2021/12/08 11:05:58;;;;;;;24.40;9.18;;;;;;;;;;5015031;28;20121;-80
2021/12/08 11:08:34;;;;;;;9.35;4.85;;;;;;;;;;5011312;28;20026;-79
2021/12/08 11:11:07;;;;;;;8.15;3.90;;;;;;;;;;5013706;28;20496;-79
2021/12/08 11:13:36;;;;;;;5.68;3.40;;;;;;;;;;5011185;28;20070;-79
2021/12/08 11:16:19;;;;;;;4.95;3.40;;;;;;;;;;5014865;28;20469;-81
2021/12/08 11:18:50;;;;;;;3.53;2.70;;;;;;;;;;5027456;28;20076;-79
2021/12/08 11:21:21;;;;;;;3.85;2.80;;;;;;;;;;5010947;28;20118;-78
2021/12/08 11:23:50;;;;;;;4.45;2.90;;;;;;;;;;5013411;28;20030;-78
2021/12/08 11:26:25;;;;;;;5.82;3.30;;;;;;;;;;5014867;28;20059;-78
2021/12/08 11:29:20;;;;;;;4.40;3.20;;;;;;;;;;5010855;28;20052;-79
2021/12/08 11:31:51;;;;;;;5.03;2.88;;;;;;;;;;5003053;28;20116;-78
2021/12/08 11:34:38;;;;;;;3.45;2.90;;;;;;;;;;5012953;28;20145;-78
2021/12/08 11:37:07;;;;;;;3.90;3.00;;;;;;;;;;5013277;28;20022;-79
2021/12/08 11:39:37;;;;;;;3.67;2.80;;;;;;;;;;5010536;28;20029;-77
2021/12/08 11:42:20;;;;;;;3.35;2.60;;;;;;;;;;5015564;28;20025;-79
2021/12/08 11:44:48;;;;;;;11.02;6.25;;;;;;;;;;5012527;28;20503;-78
2021/12/08 11:47:20;;;;;;;9.38;5.72;;;;;;;;;;5013751;28;20025;-79
2021/12/08 11:49:58;;;;;;;9.05;4.90;;;;;;;;;;5016269;28;20101;-78
2021/12/08 11:52:32;;;;;;;5.85;3.92;;;;;;;;;;5013913;28;20030;-78
2021/12/08 11:55:03;;;;;;;6.32;4.05;;;;;;;;;;5014207;28;20037;-79
2021/12/08 11:57:36;;;;;;;8.40;5.20;;;;;;;;;;5013882;28;20148;-79
2021/12/08 12:00:30;;;;;;;11.75;6.20;;;;;;;;;;5013180;28;20073;-78
2021/12/08 12:03:01;;;;;;;9.02;5.75;;;;;;;;;;5004239;28;20026;-77
2021/12/08 12:05:26;;;;;;;13.95;7.80;;;;;;;;;;5014100;28;20044;-78
2021/12/08 12:07:52;;;;;;;11.25;7.25;;;;;;;;;;5013606;28;20029;-77
2021/12/08 12:10:21;;;;;;;14.35;7.63;;;;;;;;;;5014937;28;20099;-78
2021/12/08 12:12:47;;;;;;;15.20;7.93;;;;;;;;;;5011860;28;20037;-78
2021/12/08 12:15:15;;;;;;;13.38;7.10;;;;;;;;;;5014688;28;20030;-77
2021/12/08 12:17:47;;;;;;;13.57;7.28;;;;;;;;;;5012988;28;20098;-78
2021/12/08 12:20:25;;;;;;;13.07;8.48;;;;;;;;;;5031675;28;20033;-78
2021/12/08 12:23:29;;;;;;;13.40;9.55;;;;;;;;;;5014877;28;20030;-78
2021/12/08 12:26:25;;;;;;;15.32;9.20;;;;;;;;;;5013788;28;20027;-77
2021/12/08 12:29:27;;;;;;;16.98;9.68;;;;;;;;;;5030638;28;20113;-79
2021/12/08 12:32:01;;;;;;;15.65;9.13;;;;;;;;;;5012167;28;20113;-78
2021/12/08 12:34:34;;;;;;;18.38;9.88;;;;;;;;;;5012515;28;20029;-78
2021/12/08 12:37:05;;;;;;;18.60;10.65;;;;;;;;;;5015656;28;20505;-78
2021/12/08 12:39:31;;;;;;;18.83;12.48;;;;;;;;;;5013043;28;20505;-78
2021/12/08 12:42:10;;;;;;;16.70;11.95;;;;;;;;;;5012199;28;20033;-78
2021/12/08 12:44:37;;;;;;;20.25;13.55;;;;;;;;;;5013974;28;20026;-77
2021/12/08 12:49:34;;;;;;;20.17;12.13;;;;;;;;;;5013177;28;20099;-80
2021/12/08 12:52:04;;;;;;;23.80;12.82;;;;;;;;;;5012894;28;20080;-79
2021/12/08 12:54:30;;;;;;;19.95;11.45;;;;;;;;;;5012466;28;20034;-79
2021/12/08 12:56:56;;;;;;;28.30;14.75;;;;;;;;;;5014737;28;20097;-79
2021/12/08 12:59:27;;;;;;;30.88;14.88;;;;;;;;;;5014244;28;20464;-79
2021/12/08 13:02:23;;;;;;;23.30;13.27;;;;;;;;;;5012708;28;20026;-78
2021/12/08 13:05:08;;;;;;;23.35;12.60;;;;;;;;;;5013714;28;20109;-78
2021/12/08 13:07:39;;;;;;;20.35;11.93;;;;;;;;;;5009571;28;20140;-78
2021/12/08 13:10:20;;;;;;;18.48;10.75;;;;;;;;;;5007925;28;20101;-77
2021/12/08 13:12:47;;;;;;;15.13;9.30;;;;;;;;;;5008232;28;20027;-81
2021/12/08 13:15:21;;;;;;;13.18;9.15;;;;;;;;;;5012122;28;20027;-78
2021/12/08 13:17:59;;;;;;;15.52;9.80;;;;;;;;;;5014524;28;20097;-78
2021/12/08 13:20:26;;;;;;;16.52;9.95;;;;;;;;;;5013076;28;20026;-78
2021/12/08 13:23:01;;;;;;;23.38;13.88;;;;;;;;;;5014184;28;20339;-78
2021/12/08 13:25:46;;;;;;;22.77;13.13;;;;;;;;;;5010794;28;20026;-80
2021/12/08 13:28:23;;;;;;;21.63;14.18;;;;;;;;;;5009150;28;20367;-78
2021/12/08 13:31:19;;;;;;;24.55;14.52;;;;;;;;;;5009089;28;20076;-78
2021/12/08 13:34:10;;;;;;;21.98;14.15;;;;;;;;;;5010073;28;20038;-79
2021/12/08 13:36:43;;;;;;;21.05;12.93;;;;;;;;;;5011006;28;20032;-79
2021/12/08 13:39:14;;;;;;;25.30;14.55;;;;;;;;;;5013331;28;20068;-78
2021/12/08 13:41:51;;;;;;;26.17;15.57;;;;;;;;;;5013352;28;20444;-80
2021/12/08 13:44:36;;;;;;;31.75;16.90;;;;;;;;;;5011265;28;20030;-80
2021/12/08 13:47:22;;;;;;;32.92;17.98;;;;;;;;;;5008493;28;20030;-79
2021/12/08 13:49:52;;;;;;;32.70;18.23;;;;;;;;;;5010287;28;20069;-81
2021/12/08 13:52:21;;;;;;;;;;;;;;;;;;5008182;28;20117;-80
2021/12/08 13:54:52;;;;;;;21.85;12.65;;;;;;;;;;5005315;28;19997;-80
2021/12/08 13:57:35;;;;;;;22.52;12.63;;;;;;;;;;5010574;28;20030;-79
2021/12/08 14:00:03;;;;;;;24.67;13.43;;;;;;;;;;5010178;28;20076;-79
2021/12/08 14:02:33;;;;;;;23.83;14.18;;;;;;;;;;5006845;28;20501;-79
2021/12/08 14:05:01;;;;;;;;;;;;;;;;;;5011866;28;20336;-79
2021/12/08 14:07:27;;;;;;;22.52;12.90;;;;;;;;;;5025042;28;19925;-77
2021/12/08 14:10:00;;;;;;;23.98;14.80;;;;;;;;;;5017147;28;20041;-79
2021/12/08 14:12:53;;;;;;;23.70;14.52;;;;;;;;;;5007906;28;20034;-80
2021/12/08 14:15:35;;;;;;;26.23;15.52;;;;;;;;;;5015286;28;20029;-79
2021/12/08 14:18:21;;;;;;;25.15;14.82;;;;;;;;;;5011927;28;20041;-80
2021/12/08 14:20:50;;;;;;;27.10;15.18;;;;;;;;;;5010329;28;20046;-81
2021/12/08 14:23:16;;;;;;;27.85;16.30;;;;;;;;;;5009993;28;20112;-79
2021/12/08 14:25:45;;;;;;;23.25;14.23;;;;;;;;;;5013696;28;20143;-81
2021/12/08 14:28:41;;;;;;;21.50;12.25;;;;;;;;;;5013053;28;20030;-80
2021/12/08 14:31:12;;;;;;;17.15;11.45;;;;;;;;;;5017582;28;20026;-78
2021/12/08 14:33:38;;;;;;;19.92;10.80;;;;;;;;;;5014780;28;20030;-79
2021/12/08 14:36:07;;;;;;;16.48;12.02;;;;;;;;;;5013952;28;20112;-79
2021/12/08 14:38:35;;;;;;;18.10;11.23;;;;;;;;;;5009521;28;20083;-77
2021/12/08 14:41:01;;;;;;;18.02;11.30;;;;;;;;;;5008282;28;20065;-78
2021/12/08 14:43:36;;;;;;;16.17;10.82;;;;;;;;;;5004849;28;20056;-76
2021/12/08 14:46:17;;;;;;;17.30;9.90;;;;;;;;;;5008837;28;20030;-79
2021/12/08 14:49:01;;;;;;;15.98;9.82;;;;;;;;;;5007191;28;20071;-80
2021/12/08 14:51:28;;;;;;;15.57;11.20;;;;;;;;;;5010297;28;20080;-78
2021/12/08 14:53:54;;;;;;;19.10;9.82;;;;;;;;;;5007151;28;20021;-80
2021/12/08 14:56:21;;;;;;;16.35;8.55;;;;;;;;;;5008552;28;20079;-80
2021/12/08 14:58:54;;;;;;;14.65;8.07;;;;;;;;;;5006652;28;20107;-80
2021/12/08 15:01:20;;;;;;;14.43;9.10;;;;;;;;;;5009117;28;20034;-80
2021/12/08 15:03:46;;;;;;;14.50;9.05;;;;;;;;;;5009194;28;20032;-80
2021/12/08 15:06:21;;;;;;;23.70;12.95;;;;;;;;;;5006115;28;20088;-77
2021/12/08 15:08:47;;;;;;;17.83;10.60;;;;;;;;;;5006617;28;20045;-79
2021/12/08 15:11:23;;;;;;;14.52;8.93;;;;;;;;;;5006294;28;20084;-80
2021/12/08 15:13:49;;;;;;;12.70;8.20;;;;;;;;;;5010106;28;20057;-80
2021/12/08 15:16:20;;;;;;;13.30;9.27;;;;;;;;;;5007299;28;20041;-80
2021/12/08 15:18:51;;;;;;;16.58;9.63;;;;;;;;;;5005138;28;20073;-78
2021/12/08 15:21:36;;;;;;;19.70;11.55;;;;;;;;;;5007106;28;20149;-80
2021/12/08 15:24:07;;;;;;;19.08;11.45;;;;;;;;;;5005555;28;20113;-80
2021/12/08 15:26:33;;;;;;;26.23;12.52;;;;;;;;;;5007551;28;20064;-80
2021/12/08 15:29:01;;;;;;;20.00;11.45;;;;;;;;;;5006171;28;20420;-80
2021/12/08 15:31:37;;;;;;;18.50;10.40;;;;;;;;;;5009542;28;20068;-81
2021/12/08 15:34:35;;;;;;;20.60;10.88;;;;;;;;;;5027112;28;20030;-80
2021/12/08 15:37:13;;;;;;;20.85;11.73;;;;;;;;;;4975146;28;20034;-81
2021/12/08 15:39:41;;;;;;;17.95;11.38;;;;;;;;;;5012624;28;20512;-81
2021/12/08 15:42:12;;;;;;;20.13;12.75;;;;;;;;;;5013558;28;20439;-81
2021/12/08 15:44:39;;;;;;;33.63;16.73;;;;;;;;;;5009947;28;20125;-82
2021/12/08 15:47:06;;;;;;;38.65;17.45;;;;;;;;;;5018990;28;20140;-81
2021/12/08 15:49:37;;;;;;;30.95;14.07;;;;;;;;;;5013738;28;20104;-83
2021/12/08 15:52:13;;;;;;;29.17;14.10;;;;;;;;;;5012840;28;20030;-80